createdAt,value
2022-11-15T00:00:35.834Z,14.68
2022-11-15T00:01:57.351Z,18.40
2022-11-15T00:03:26.285Z,18.80
2022-11-15T00:04:47.763Z,17.50
2022-11-15T00:06:10.387Z,18.90
2022-11-15T00:07:54.617Z,22.17
2022-11-15T00:09:13.791Z,19.38
2022-11-15T00:10:35.512Z,16.73
2022-11-15T00:11:57.081Z,16.30
2022-11-15T00:13:18.412Z,16.48
2022-11-15T00:14:39.994Z,15.35
2022-11-15T00:16:02.699Z,18.23
2022-11-15T00:17:24.595Z,16.15
2022-11-15T00:18:50.279Z,15.50
2022-11-15T00:20:12.624Z,14.25
2022-11-15T00:21:34.473Z,17.17
2022-11-15T00:22:55.784Z,17.90
2022-11-15T00:24:17.102Z,20.60
2022-11-15T00:25:38.771Z,21.55
2022-11-15T00:27:00.516Z,21.30
2022-11-15T00:28:22.226Z,17.45
2022-11-15T00:29:44.388Z,18.95
2022-11-15T00:31:10.566Z,17.25
2022-11-15T00:32:34.767Z,16.02
2022-11-15T00:33:56.114Z,21.63
2022-11-15T00:35:18.291Z,19.15
2022-11-15T00:36:40.535Z,17.38
2022-11-15T00:38:02.826Z,18.05
2022-11-15T00:39:24.451Z,21.70
2022-11-15T00:40:45.869Z,19.95
2022-11-15T00:42:07.544Z,18.88
2022-11-15T00:43:29.434Z,20.63
2022-11-15T00:44:51.120Z,19.92
2022-11-15T00:46:12.868Z,20.92
2022-11-15T00:47:34.517Z,18.42
2022-11-15T00:48:56.215Z,21.77
2022-11-15T00:50:18.373Z,17.75
2022-11-15T00:51:40.252Z,18.17
2022-11-15T00:53:02.097Z,20.85
2022-11-15T00:54:23.816Z,20.02
2022-11-15T00:55:45.372Z,24.38
2022-11-15T00:57:06.678Z,18.75
2022-11-15T00:58:28.326Z,20.60
2022-11-15T00:59:49.560Z,19.23
2022-11-15T01:01:14.659Z,19.77
2022-11-15T01:02:36.375Z,20.58
2022-11-15T01:04:01.246Z,19.02
2022-11-15T01:05:23.451Z,20.35
2022-11-15T01:06:45.092Z,18.42
2022-11-15T01:08:07.120Z,20.95
2022-11-15T01:09:28.582Z,21.70
2022-11-15T01:10:50.190Z,23.08
2022-11-15T01:12:12.001Z,21.45
2022-11-15T01:13:37.978Z,20.48
2022-11-15T01:14:59.449Z,22.80
2022-11-15T01:16:20.995Z,22.95
2022-11-15T01:17:42.833Z,23.25
2022-11-15T01:19:05.031Z,23.05
2022-11-15T01:20:26.383Z,26.17
2022-11-15T01:21:51.339Z,23.65
2022-11-15T01:23:13.336Z,21.38
2022-11-15T01:24:34.973Z,23.02
2022-11-15T01:26:01.771Z,23.75
2022-11-15T01:27:23.591Z,24.02
2022-11-15T01:28:45.205Z,25.25
2022-11-15T01:30:07.851Z,25.73
2022-11-15T01:31:29.323Z,28.52
2022-11-15T01:32:51.278Z,28.48
2022-11-15T01:34:12.715Z,27.52
2022-11-15T01:35:34.406Z,26.77
2022-11-15T01:36:55.728Z,27.35
2022-11-15T01:38:17.541Z,36.00
2022-11-15T01:39:39.475Z,30.23
2022-11-15T01:41:00.988Z,28.58
2022-11-15T01:42:22.628Z,31.20
2022-11-15T01:43:44.156Z,33.83
2022-11-15T01:45:06.890Z,34.33
2022-11-15T01:46:34.902Z,28.95
2022-11-15T01:47:57.241Z,26.13
2022-11-15T01:49:23.098Z,35.33
2022-11-15T01:50:45.795Z,29.20
2022-11-15T01:52:13.533Z,32.10
2022-11-15T01:53:38.321Z,36.47
2022-11-15T01:55:27.018Z,33.70
2022-11-15T01:57:02.558Z,33.78
2022-11-15T01:58:24.306Z,34.85
2022-11-15T01:59:46.616Z,29.38
2022-11-15T02:01:08.599Z,34.40
2022-11-15T02:02:30.139Z,39.67
2022-11-15T02:04:30.380Z,37.83
2022-11-15T02:05:52.191Z,38.55
2022-11-15T02:07:18.335Z,44.03
2022-11-15T02:08:40.336Z,33.88
2022-11-15T02:10:12.692Z,31.13
2022-11-15T02:11:34.835Z,35.88
2022-11-15T02:12:58.296Z,34.13
2022-11-15T02:14:21.368Z,34.03
2022-11-15T02:16:15.039Z,39.90
2022-11-15T02:18:11.775Z,36.35
2022-11-15T02:19:33.515Z,37.35
2022-11-15T02:21:26.626Z,42.05
2022-11-15T02:23:30.790Z,36.03
2022-11-15T02:25:32.742Z,36.35
2022-11-15T02:27:37.622Z,39.10
2022-11-15T02:29:14.430Z,38.05
2022-11-15T02:30:54.920Z,36.75
2022-11-15T02:33:21.318Z,35.88
2022-11-15T02:35:22.059Z,34.90
2022-11-15T02:37:35.636Z,35.47
2022-11-15T02:39:54.707Z,34.83
2022-11-15T02:41:31.808Z,36.50
2022-11-15T02:43:30.912Z,29.98
2022-11-15T02:44:56.771Z,38.33
2022-11-15T02:47:02.128Z,37.42
2022-11-15T02:48:27.052Z,34.17
2022-11-15T02:49:52.407Z,35.78
2022-11-15T02:51:16.051Z,36.28
2022-11-15T02:52:37.847Z,38.10
2022-11-15T02:53:59.870Z,39.17
2022-11-15T02:55:52.313Z,41.75
2022-11-15T02:57:19.536Z,39.40
2022-11-15T02:59:13.325Z,38.33
2022-11-15T03:00:48.250Z,38.80
2022-11-15T03:02:12.884Z,32.88
2022-11-15T03:04:01.968Z,37.42
2022-11-15T03:05:47.629Z,37.75
2022-11-15T03:07:31.036Z,33.25
2022-11-15T03:09:04.941Z,36.75
2022-11-15T03:10:47.120Z,38.55
2022-11-15T03:12:34.898Z,33.95
2022-11-15T03:14:35.507Z,37.45
2022-11-15T03:16:39.151Z,24.85
2022-11-15T03:18:27.043Z,42.35
2022-11-15T03:19:54.130Z,37.97
2022-11-15T03:21:20.007Z,43.03
2022-11-15T03:22:46.113Z,37.72
2022-11-15T03:24:09.831Z,40.85
2022-11-15T03:25:35.652Z,33.97
2022-11-15T03:27:00.723Z,37.05
2022-11-15T03:28:34.423Z,40.38
2022-11-15T03:30:01.628Z,38.28
2022-11-15T03:31:50.060Z,39.67
2022-11-15T03:33:12.816Z,37.03
2022-11-15T03:34:52.043Z,36.38
2022-11-15T03:36:13.453Z,39.15
2022-11-15T03:38:09.647Z,37.63
2022-11-15T03:39:31.578Z,38.65
2022-11-15T03:41:16.844Z,37.47
2022-11-15T03:42:45.057Z,42.05
2022-11-15T03:44:27.152Z,38.22
2022-11-15T03:46:02.029Z,38.38
2022-11-15T03:47:49.362Z,38.88
2022-11-15T03:49:20.923Z,36.28
2022-11-15T03:50:44.514Z,35.30
2022-11-15T03:52:06.846Z,39.95
2022-11-15T03:53:29.615Z,37.53
2022-11-15T03:54:57.445Z,34.47
2022-11-15T03:56:19.246Z,34.88
2022-11-15T03:57:40.960Z,36.45
2022-11-15T03:59:02.661Z,37.72
2022-11-15T04:00:24.473Z,36.40
2022-11-15T04:01:47.134Z,34.38
2022-11-15T04:03:09.079Z,36.22
2022-11-15T04:04:30.855Z,37.17
2022-11-15T04:05:52.272Z,36.58
2022-11-15T04:07:14.408Z,35.08
2022-11-15T04:08:36.265Z,38.47
2022-11-15T04:10:04.040Z,42.08
2022-11-15T04:11:25.432Z,34.33
2022-11-15T04:12:48.776Z,38.63
2022-11-15T04:14:10.387Z,38.08
2022-11-15T04:15:32.014Z,33.05
2022-11-15T04:16:53.299Z,37.95
2022-11-15T04:18:14.794Z,33.38
2022-11-15T04:19:55.188Z,34.08
2022-11-15T04:21:34.897Z,36.25
2022-11-15T04:23:16.802Z,34.25
2022-11-15T04:24:38.136Z,34.63
2022-11-15T04:26:11.257Z,38.78
2022-11-15T04:27:32.950Z,32.92
2022-11-15T04:29:13.085Z,30.60
2022-11-15T04:30:35.029Z,38.03
2022-11-15T04:31:56.443Z,36.85
2022-11-15T04:33:18.212Z,37.22
2022-11-15T04:34:40.118Z,36.25
2022-11-15T04:36:19.998Z,36.38
2022-11-15T04:37:45.059Z,33.90
2022-11-15T04:39:09.255Z,32.60
2022-11-15T04:40:30.825Z,38.88
2022-11-15T04:41:52.354Z,31.85
2022-11-15T04:43:14.262Z,35.42
2022-11-15T04:44:35.735Z,35.08
2022-11-15T04:45:57.237Z,34.63
2022-11-15T04:47:19.922Z,38.20
2022-11-15T04:48:41.396Z,34.13
2022-11-15T04:50:04.217Z,34.72
2022-11-15T04:51:26.014Z,35.53
2022-11-15T04:52:55.328Z,40.55
2022-11-15T04:54:16.894Z,37.97
2022-11-15T04:55:38.433Z,35.53
2022-11-15T04:56:59.756Z,32.67
2022-11-15T04:58:21.486Z,35.17
2022-11-15T04:59:43.252Z,38.53
2022-11-15T05:01:15.781Z,34.40
2022-11-15T05:03:06.643Z,34.20
2022-11-15T05:04:28.123Z,34.40
2022-11-15T05:05:49.812Z,36.45
2022-11-15T05:07:11.717Z,35.20
2022-11-15T05:08:33.639Z,38.72
2022-11-15T05:09:55.139Z,40.33
2022-11-15T05:11:16.673Z,39.63
2022-11-15T05:12:38.564Z,37.88
2022-11-15T05:14:00.180Z,35.65
2022-11-15T05:15:21.847Z,38.88
2022-11-15T05:16:43.554Z,37.53
2022-11-15T05:18:04.976Z,34.22
2022-11-15T05:19:26.661Z,41.97
2022-11-15T05:20:48.758Z,37.08
2022-11-15T05:22:09.996Z,33.78
2022-11-15T05:23:31.794Z,35.00
2022-11-15T05:24:53.567Z,36.75
2022-11-15T05:26:18.517Z,39.30
2022-11-15T05:27:39.794Z,36.22
2022-11-15T05:29:01.207Z,42.85
2022-11-15T05:30:23.482Z,44.67
2022-11-15T05:31:45.090Z,45.35
2022-11-15T05:33:07.321Z,41.63
2022-11-15T05:34:28.718Z,43.53
2022-11-15T05:36:01.478Z,36.17
2022-11-15T05:37:23.223Z,39.10
2022-11-15T05:38:46.643Z,39.20
2022-11-15T05:40:09.195Z,37.70
2022-11-15T05:41:54.206Z,41.83
2022-11-15T05:43:16.104Z,42.20
2022-11-15T05:44:40.582Z,35.60
2022-11-15T05:46:04.115Z,37.88
2022-11-15T05:47:29.621Z,40.75
2022-11-15T05:48:54.804Z,36.03
2022-11-15T05:50:19.566Z,40.47
2022-11-15T05:51:46.223Z,40.45
2022-11-15T05:53:08.629Z,33.15
2022-11-15T05:54:31.639Z,40.25
2022-11-15T05:55:53.554Z,31.25
2022-11-15T05:57:15.302Z,36.55
2022-11-15T05:58:38.393Z,37.03
2022-11-15T06:00:00.176Z,34.08
2022-11-15T06:01:22.558Z,40.60
2022-11-15T06:02:43.998Z,33.90
2022-11-15T06:04:05.361Z,37.72
2022-11-15T06:05:26.990Z,39.30
2022-11-15T06:06:48.788Z,38.67
2022-11-15T06:08:10.899Z,40.50
2022-11-15T06:09:32.616Z,39.10
2022-11-15T06:10:54.308Z,36.17
2022-11-15T06:12:15.998Z,37.38
2022-11-15T06:13:37.490Z,43.20
2022-11-15T06:14:59.039Z,36.97
2022-11-15T06:16:20.567Z,34.90
2022-11-15T06:17:42.297Z,43.95
2022-11-15T06:19:03.961Z,41.08
2022-11-15T06:20:28.077Z,43.20
2022-11-15T06:21:49.768Z,35.95
2022-11-15T06:23:11.609Z,35.72
2022-11-15T06:24:33.284Z,38.90
2022-11-15T06:25:54.824Z,37.63
2022-11-15T06:27:16.113Z,36.40
2022-11-15T06:28:37.635Z,35.05
2022-11-15T06:29:59.098Z,37.00
2022-11-15T06:31:20.731Z,41.33
2022-11-15T06:32:42.415Z,43.47
2022-11-15T06:34:04.185Z,46.80
2022-11-15T06:35:28.658Z,37.20
2022-11-15T06:36:50.060Z,35.75
2022-11-15T06:38:12.597Z,34.95
2022-11-15T06:39:34.664Z,38.88
2022-11-15T06:40:56.226Z,34.47
2022-11-15T06:42:17.957Z,32.10
2022-11-15T06:43:39.946Z,40.97
2022-11-15T06:45:01.781Z,39.83
2022-11-15T06:46:23.614Z,40.30
2022-11-15T06:47:47.661Z,42.22
2022-11-15T06:49:09.897Z,40.95
2022-11-15T06:50:31.684Z,43.70
2022-11-15T06:51:53.330Z,37.08
2022-11-15T06:53:14.922Z,44.47
2022-11-15T06:54:36.674Z,38.92
2022-11-15T06:56:07.388Z,39.05
2022-11-15T06:57:28.962Z,36.67
2022-11-15T06:58:50.760Z,35.33
2022-11-15T07:00:13.157Z,35.90
2022-11-15T07:01:37.553Z,35.97
2022-11-15T07:03:02.239Z,40.95
2022-11-15T07:04:23.937Z,37.70
2022-11-15T07:06:01.407Z,38.88
2022-11-15T07:07:27.364Z,38.75
2022-11-15T07:08:49.153Z,39.95
2022-11-15T07:10:10.766Z,44.00
2022-11-15T07:11:33.629Z,40.47
2022-11-15T07:12:56.710Z,35.08
2022-11-15T07:14:18.380Z,35.08
2022-11-15T07:15:39.772Z,32.95
2022-11-15T07:17:01.186Z,34.70
2022-11-15T07:18:22.932Z,32.90
2022-11-15T07:19:44.482Z,38.35
2022-11-15T07:21:09.707Z,39.17
2022-11-15T07:22:31.345Z,39.88
2022-11-15T07:23:53.100Z,37.85
2022-11-15T07:25:15.049Z,38.88
2022-11-15T07:26:36.843Z,36.60
2022-11-15T07:27:59.549Z,43.75
2022-11-15T07:29:21.745Z,37.35
2022-11-15T07:30:45.395Z,37.90
2022-11-15T07:32:07.442Z,33.30
2022-11-15T07:33:29.072Z,35.33
2022-11-15T07:34:51.221Z,35.53
2022-11-15T07:36:12.713Z,41.67
2022-11-15T07:37:34.484Z,38.90
2022-11-15T07:38:55.874Z,35.53
2022-11-15T07:40:18.150Z,40.75
2022-11-15T07:41:39.901Z,36.53
2022-11-15T07:43:03.723Z,33.28
2022-11-15T07:44:26.414Z,38.90
2022-11-15T07:45:47.727Z,35.65
2022-11-15T07:47:09.283Z,41.95
2022-11-15T07:48:42.761Z,33.92
2022-11-15T07:50:05.911Z,42.78
2022-11-15T07:51:27.327Z,39.15
2022-11-15T07:52:48.759Z,35.58
2022-11-15T07:54:10.294Z,36.10
2022-11-15T07:55:31.707Z,31.60
2022-11-15T07:56:53.121Z,40.40
2022-11-15T07:58:14.538Z,40.15
2022-11-15T07:59:36.294Z,31.00
2022-11-15T08:00:57.666Z,36.08
2022-11-15T08:02:19.213Z,39.17
2022-11-15T08:03:40.850Z,35.85
2022-11-15T08:05:02.669Z,43.00
2022-11-15T08:06:24.392Z,45.08
2022-11-15T08:07:45.923Z,36.90
2022-11-15T08:09:07.544Z,32.88
2022-11-15T08:10:30.242Z,40.22
2022-11-15T08:11:51.949Z,32.03
2022-11-15T08:13:14.305Z,36.88
2022-11-15T08:14:36.980Z,38.13
2022-11-15T08:16:02.005Z,35.80
2022-11-15T08:17:25.321Z,31.40
2022-11-15T08:18:47.172Z,34.78
2022-11-15T08:20:09.460Z,38.08
2022-11-15T08:21:31.064Z,39.53
2022-11-15T08:22:52.944Z,33.63
2022-11-15T08:24:15.514Z,36.25
2022-11-15T08:25:37.411Z,39.38
2022-11-15T08:26:58.871Z,40.60
2022-11-15T08:28:20.467Z,32.60
2022-11-15T08:29:48.361Z,37.03
2022-11-15T08:31:19.805Z,32.53
2022-11-15T08:32:41.350Z,42.00
2022-11-15T08:34:04.467Z,35.95
2022-11-15T08:35:29.024Z,33.78
2022-11-15T08:36:50.964Z,40.05
2022-11-15T08:38:12.838Z,33.92
2022-11-15T08:39:34.392Z,40.22
2022-11-15T08:41:05.083Z,37.85
2022-11-15T08:42:26.474Z,39.35
2022-11-15T08:43:48.416Z,37.25
2022-11-15T08:45:10.839Z,37.42
2022-11-15T08:46:32.379Z,36.50
2022-11-15T08:47:54.772Z,34.47
2022-11-15T08:49:16.601Z,37.85
2022-11-15T08:50:38.735Z,36.55
2022-11-15T08:52:00.250Z,39.63
2022-11-15T08:53:21.768Z,36.95
2022-11-15T08:54:43.152Z,35.25
2022-11-15T08:56:07.992Z,37.05
2022-11-15T08:57:32.383Z,38.22
2022-11-15T08:58:54.283Z,43.45
2022-11-15T09:00:16.496Z,37.20
2022-11-15T09:01:38.553Z,37.35
2022-11-15T09:03:00.662Z,47.22
2022-11-15T09:04:22.716Z,43.05
2022-11-15T09:05:44.585Z,42.00
2022-11-15T09:07:05.931Z,40.58
2022-11-15T09:08:48.242Z,39.33
2022-11-15T09:10:10.670Z,44.40
2022-11-15T09:11:32.438Z,36.95
2022-11-15T09:12:53.655Z,42.13
2022-11-15T09:14:16.078Z,43.42
2022-11-15T09:15:37.628Z,46.35
2022-11-15T09:16:59.529Z,40.28
2022-11-15T09:18:23.518Z,46.22
2022-11-15T09:19:45.211Z,40.15
2022-11-15T09:21:07.028Z,39.53
2022-11-15T09:22:29.691Z,40.70
2022-11-15T09:23:54.050Z,44.13
2022-11-15T09:25:15.778Z,40.85
2022-11-15T09:26:37.422Z,38.40
2022-11-15T09:28:00.069Z,36.80
2022-11-15T09:29:23.985Z,42.00
2022-11-15T09:30:45.871Z,42.17
2022-11-15T09:32:07.625Z,47.95
2022-11-15T09:33:30.415Z,45.20
2022-11-15T09:34:52.088Z,53.22
2022-11-15T09:36:14.179Z,53.40
2022-11-15T09:37:35.742Z,51.35
2022-11-15T09:38:59.441Z,47.72
2022-11-15T09:40:23.729Z,45.13
2022-11-15T09:42:30.931Z,50.53
2022-11-15T09:44:07.419Z,43.53
2022-11-15T09:45:52.011Z,44.30
2022-11-15T09:48:11.315Z,43.33
2022-11-15T09:49:34.205Z,45.60
2022-11-15T09:50:54.383Z,38.97
2022-11-15T09:51:58.002Z,47.75
2022-11-15T09:53:01.129Z,38.53
2022-11-15T09:56:13.348Z,44.25
2022-11-15T09:58:10.954Z,43.78
2022-11-15T09:59:47.862Z,39.13
2022-11-15T10:00:53.991Z,47.65
2022-11-15T10:02:39.207Z,42.45
2022-11-15T10:03:43.108Z,33.78
2022-11-15T10:04:46.565Z,37.75
2022-11-15T10:05:53.122Z,38.88
2022-11-15T10:07:16.828Z,35.28
2022-11-15T10:09:12.919Z,34.05
2022-11-15T10:10:42.926Z,29.77
2022-11-15T10:11:46.026Z,32.97
2022-11-15T10:12:51.228Z,33.97
2022-11-15T10:14:00.632Z,40.00
2022-11-15T10:15:14.308Z,38.20
2022-11-15T10:16:47.110Z,32.78
2022-11-15T10:18:19.210Z,37.33
2022-11-15T10:19:34.221Z,35.75
2022-11-15T10:21:03.761Z,37.08
2022-11-15T10:22:31.139Z,33.85
2022-11-15T10:23:34.348Z,36.60
2022-11-15T10:24:45.370Z,33.22
2022-11-15T10:25:51.738Z,32.60
2022-11-15T10:26:56.678Z,37.83
2022-11-15T10:28:31.742Z,37.10
2022-11-15T10:29:35.108Z,34.47
2022-11-15T10:30:43.641Z,42.13
2022-11-15T10:31:46.769Z,38.15
2022-11-15T10:32:50.629Z,37.97
2022-11-15T10:34:16.327Z,38.80
2022-11-15T10:35:30.844Z,39.17
2022-11-15T10:36:34.143Z,37.53
2022-11-15T10:37:37.296Z,40.30
2022-11-15T10:38:54.824Z,42.30
2022-11-15T10:40:07.723Z,43.97
2022-11-15T10:41:13.135Z,39.30
2022-11-15T10:42:30.387Z,42.50
2022-11-15T10:43:33.741Z,45.70
2022-11-15T10:44:45.825Z,36.75
2022-11-15T10:45:49.768Z,38.13
2022-11-15T10:47:07.650Z,37.17
2022-11-15T10:48:13.650Z,40.78
2022-11-15T10:49:28.831Z,40.28
2022-11-15T10:50:33.833Z,37.60
2022-11-15T10:51:55.519Z,38.10
2022-11-15T10:53:01.166Z,33.80
2022-11-15T10:54:13.003Z,37.20
2022-11-15T10:55:17.826Z,34.10
2022-11-15T10:56:23.910Z,32.53
2022-11-15T10:57:39.413Z,31.30
2022-11-15T10:58:55.583Z,37.42
2022-11-15T11:00:04.081Z,32.83
2022-11-15T11:01:46.429Z,31.00
2022-11-15T11:03:08.195Z,33.38
2022-11-15T11:04:11.558Z,34.65
2022-11-15T11:05:41.763Z,33.80
2022-11-15T11:06:54.810Z,31.67
2022-11-15T11:08:07.192Z,33.53
2022-11-15T11:09:33.502Z,37.83
2022-11-15T11:10:50.935Z,38.42
2022-11-15T11:11:55.140Z,33.95
2022-11-15T11:13:24.845Z,35.80
2022-11-15T11:14:45.997Z,35.08
2022-11-15T11:16:29.267Z,39.60
2022-11-15T11:17:56.479Z,32.85
2022-11-15T11:19:39.542Z,36.17
2022-11-15T11:20:59.939Z,37.47
2022-11-15T11:22:23.101Z,40.08
2022-11-15T11:24:04.384Z,35.60
2022-11-15T11:27:00.990Z,34.10
2022-11-15T11:28:31.754Z,32.10
2022-11-15T11:29:42.250Z,34.47
2022-11-15T11:31:16.262Z,36.60
2022-11-15T11:33:03.367Z,32.92
2022-11-15T11:35:18.469Z,30.60
2022-11-15T11:36:43.072Z,29.67
2022-11-15T11:38:28.993Z,35.58
2022-11-15T11:40:19.556Z,30.67
2022-11-15T11:42:04.761Z,33.67
2022-11-15T11:43:42.798Z,35.83
2022-11-15T11:45:10.861Z,36.28
2022-11-15T11:46:28.453Z,31.95
2022-11-15T11:47:42.935Z,32.60
2022-11-15T11:49:13.433Z,37.55
2022-11-15T11:50:28.244Z,38.50
2022-11-15T11:51:52.834Z,35.08
2022-11-15T11:53:03.864Z,35.60
2022-11-15T11:54:44.466Z,36.42
2022-11-15T11:55:54.560Z,38.57
2022-11-15T11:57:01.011Z,37.38
2022-11-15T11:58:31.465Z,34.75
2022-11-15T11:59:59.757Z,39.05
2022-11-15T12:01:38.236Z,36.28
2022-11-15T12:02:51.740Z,35.67
2022-11-15T12:04:25.983Z,33.67
2022-11-15T12:05:47.240Z,33.78
2022-11-15T12:07:33.714Z,36.95
2022-11-15T12:08:59.073Z,34.40
2022-11-15T12:10:23.279Z,38.90
2022-11-15T12:11:46.702Z,28.25
2022-11-15T12:13:14.531Z,34.20
2022-11-15T12:14:26.684Z,39.42
2022-11-15T12:15:38.242Z,38.03
2022-11-15T12:16:44.010Z,37.53
2022-11-15T12:17:48.362Z,37.38
2022-11-15T12:18:57.128Z,37.47
2022-11-15T12:20:28.844Z,40.13
2022-11-15T12:21:59.485Z,43.15
2022-11-15T12:23:33.497Z,42.78
2022-11-15T12:24:52.505Z,43.63
2022-11-15T12:26:23.292Z,38.92
2022-11-15T12:27:49.901Z,42.83
2022-11-15T12:29:07.413Z,40.60
2022-11-15T12:30:18.584Z,37.25
2022-11-15T12:31:42.429Z,42.60
2022-11-15T12:33:38.486Z,36.65
2022-11-15T12:34:47.601Z,34.67
2022-11-15T12:36:03.457Z,41.72
2022-11-15T12:37:41.689Z,39.20
2022-11-15T12:39:03.807Z,36.60
2022-11-15T12:40:22.968Z,46.72
2022-11-15T12:41:38.883Z,39.30
2022-11-15T12:43:04.408Z,42.15
2022-11-15T12:44:34.093Z,41.17
2022-11-15T12:45:40.880Z,42.33
2022-11-15T12:46:46.752Z,40.58
2022-11-15T12:47:49.842Z,39.45
2022-11-15T12:48:57.009Z,43.25
2022-11-15T12:50:00.194Z,37.90
2022-11-15T12:51:03.979Z,39.78
2022-11-15T12:52:09.769Z,39.95
2022-11-15T12:53:28.866Z,44.13
2022-11-15T12:54:37.587Z,34.95
2022-11-15T12:55:40.821Z,45.95
2022-11-15T12:56:44.175Z,42.45
2022-11-15T12:57:47.334Z,40.03
2022-11-15T12:58:58.484Z,36.70
2022-11-15T13:00:25.474Z,46.50
2022-11-15T13:01:35.011Z,42.28
2022-11-15T13:02:49.556Z,47.50
2022-11-15T13:04:19.703Z,39.38
2022-11-15T13:05:45.591Z,44.00
2022-11-15T13:06:56.942Z,43.80
2022-11-15T13:08:00.306Z,44.88
2022-11-15T13:09:04.627Z,44.55
2022-11-15T13:10:13.723Z,47.97
2022-11-15T13:11:45.880Z,42.85
2022-11-15T13:12:50.850Z,43.28
2022-11-15T13:13:54.166Z,48.65
2022-11-15T13:15:12.539Z,49.50
2022-11-15T13:16:21.912Z,48.53
2022-11-15T13:17:35.276Z,47.47
2022-11-15T13:18:41.654Z,49.75
2022-11-15T13:19:46.645Z,44.70
2022-11-15T13:20:49.903Z,42.42
2022-11-15T13:22:11.996Z,45.55
2022-11-15T13:23:17.583Z,43.03
2022-11-15T13:24:20.822Z,45.42
2022-11-15T13:25:38.982Z,45.28
2022-11-15T13:26:42.959Z,44.38
2022-11-15T13:27:51.019Z,43.25
2022-11-15T13:28:56.401Z,45.63
2022-11-15T13:29:59.805Z,45.22
2022-11-15T13:31:31.458Z,49.22
2022-11-15T13:32:34.540Z,48.22
2022-11-15T13:33:40.317Z,50.28
2022-11-15T13:34:52.302Z,48.08
2022-11-15T13:36:00.919Z,44.88
2022-11-15T13:37:04.246Z,48.13
2022-11-15T13:38:07.636Z,44.85
2022-11-15T13:39:35.151Z,42.92
2022-11-15T13:40:38.729Z,44.90
2022-11-15T13:41:51.145Z,39.80
2022-11-15T13:42:55.201Z,39.80
2022-11-15T13:44:00.030Z,41.03
2022-11-15T13:45:05.825Z,45.65
2022-11-15T13:46:18.614Z,45.83
2022-11-15T13:47:21.709Z,43.22
2022-11-15T13:48:24.829Z,43.85
2022-11-15T13:49:33.493Z,44.63
2022-11-15T13:50:40.173Z,38.67
2022-11-15T13:51:55.991Z,40.75
2022-11-15T13:53:03.911Z,41.38
2022-11-15T13:54:24.811Z,41.50
2022-11-15T13:56:35.146Z,39.78
2022-11-15T13:57:54.653Z,43.53
2022-11-15T13:58:57.916Z,44.03
2022-11-15T14:00:39.820Z,49.00
2022-11-15T14:01:44.657Z,45.97
2022-11-15T14:02:47.881Z,48.85
2022-11-15T14:04:00.653Z,45.60
2022-11-15T14:05:17.901Z,45.83
2022-11-15T14:06:24.435Z,47.08
2022-11-15T14:07:29.916Z,43.00
2022-11-15T14:08:33.271Z,50.90
2022-11-15T14:09:39.659Z,40.90
2022-11-15T14:10:42.650Z,52.08
2022-11-15T14:11:57.673Z,46.40
2022-11-15T14:13:02.264Z,50.75
2022-11-15T14:14:13.988Z,50.75
2022-11-15T14:15:39.724Z,48.95
2022-11-15T14:16:53.536Z,51.58
2022-11-15T14:17:56.811Z,49.85
2022-11-15T14:19:08.174Z,53.70
2022-11-15T14:20:26.053Z,53.25
2022-11-15T14:21:29.323Z,50.50
2022-11-15T14:22:34.566Z,51.60
2022-11-15T14:23:37.733Z,55.95
2022-11-15T14:24:42.732Z,54.70
2022-11-15T14:25:55.782Z,47.97
2022-11-15T14:27:16.531Z,52.85
2022-11-15T14:28:24.948Z,44.60
2022-11-15T14:29:30.131Z,48.75
2022-11-15T14:30:33.269Z,49.55
2022-11-15T14:31:41.096Z,48.55
2022-11-15T14:32:51.720Z,47.40
2022-11-15T14:33:54.816Z,49.88
2022-11-15T14:35:01.377Z,53.92
2022-11-15T14:36:14.593Z,51.85
2022-11-15T14:37:32.505Z,52.75
2022-11-15T14:38:36.173Z,53.20
2022-11-15T14:39:39.543Z,48.45
2022-11-15T14:40:45.163Z,47.70
2022-11-15T14:41:48.238Z,46.30
2022-11-15T14:42:51.659Z,45.10
2022-11-15T14:43:55.127Z,45.58
2022-11-15T14:44:58.522Z,50.50
2022-11-15T14:46:01.645Z,50.15
2022-11-15T14:47:04.957Z,47.70
2022-11-15T14:48:08.728Z,40.03
2022-11-15T14:49:14.138Z,44.10
2022-11-15T14:50:20.918Z,40.40
2022-11-15T14:51:24.304Z,42.88
2022-11-15T14:52:35.499Z,40.63
2022-11-15T14:53:38.676Z,36.97
2022-11-15T14:54:41.809Z,37.40
2022-11-15T14:55:45.487Z,38.90
2022-11-15T14:56:48.714Z,38.63
2022-11-15T14:57:53.608Z,40.75
2022-11-15T14:58:56.739Z,38.92
2022-11-15T14:59:59.803Z,37.28
2022-11-15T15:01:25.710Z,38.45
2022-11-15T15:02:29.152Z,35.80
2022-11-15T15:03:32.276Z,36.00
2022-11-15T15:04:35.400Z,36.88
2022-11-15T15:05:42.647Z,40.67
2022-11-15T15:06:46.063Z,44.15
2022-11-15T15:07:50.456Z,42.83
2022-11-15T15:08:53.736Z,39.38
2022-11-15T15:10:24.532Z,44.63
2022-11-15T15:11:29.923Z,47.17
2022-11-15T15:12:33.040Z,47.30
2022-11-15T15:13:36.154Z,46.10
2022-11-15T15:14:39.425Z,40.95
2022-11-15T15:15:42.447Z,47.53
2022-11-15T15:16:45.509Z,45.78
2022-11-15T15:17:48.658Z,44.15
2022-11-15T15:18:52.357Z,45.97
2022-11-15T15:19:55.460Z,49.90
2022-11-15T15:21:03.448Z,51.28
2022-11-15T15:22:07.455Z,47.83
2022-11-15T15:23:19.553Z,49.10
2022-11-15T15:24:22.715Z,57.30
2022-11-15T15:25:36.159Z,50.00
2022-11-15T15:26:40.162Z,52.45
2022-11-15T15:27:43.308Z,50.50
2022-11-15T15:28:46.322Z,47.50
2022-11-15T15:29:49.353Z,62.42
2022-11-15T15:30:53.794Z,47.45
2022-11-15T15:31:56.860Z,45.20
2022-11-15T15:32:59.918Z,45.92
2022-11-15T15:34:03.130Z,49.78
2022-11-15T15:35:06.603Z,47.30
2022-11-15T15:36:14.951Z,52.00
2022-11-15T15:37:27.161Z,47.88
2022-11-15T15:38:30.808Z,41.58
2022-11-15T15:39:34.264Z,41.72
2022-11-15T15:40:37.272Z,40.80
2022-11-15T15:41:40.372Z,51.03
2022-11-15T15:42:43.747Z,46.97
2022-11-15T15:43:47.101Z,44.47
2022-11-15T15:44:51.435Z,39.78
2022-11-15T15:45:54.635Z,37.25
2022-11-15T15:46:58.980Z,36.50
2022-11-15T15:48:02.011Z,35.67
2022-11-15T15:49:05.406Z,35.13
2022-11-15T15:50:29.119Z,38.38
2022-11-15T15:51:32.251Z,40.60
2022-11-15T15:52:35.815Z,35.75
2022-11-15T15:53:39.445Z,40.83
2022-11-15T15:54:42.691Z,35.10
2022-11-15T15:55:45.793Z,42.15
2022-11-15T15:56:53.456Z,39.63
2022-11-15T15:57:59.273Z,40.78
2022-11-15T15:59:02.327Z,38.70
2022-11-15T16:00:06.720Z,41.25
2022-11-15T16:01:15.120Z,36.67
2022-11-15T16:02:18.453Z,38.85
2022-11-15T16:03:21.679Z,38.17
2022-11-15T16:04:24.874Z,36.80
2022-11-15T16:05:28.004Z,34.03
2022-11-15T16:06:37.681Z,45.45
2022-11-15T16:07:41.676Z,38.60
2022-11-15T16:09:08.444Z,35.80
2022-11-15T16:10:27.138Z,40.88
2022-11-15T16:11:30.308Z,40.55
2022-11-15T16:12:36.683Z,39.38
2022-11-15T16:13:39.794Z,38.05
2022-11-15T16:14:43.448Z,39.22
2022-11-15T16:15:50.171Z,36.13
2022-11-15T16:16:53.211Z,38.05
2022-11-15T16:18:01.258Z,45.38
2022-11-15T16:19:05.534Z,36.33
2022-11-15T16:20:28.850Z,39.60
2022-11-15T16:21:32.342Z,36.58
2022-11-15T16:22:35.474Z,39.75
2022-11-15T16:23:38.719Z,43.22
2022-11-15T16:24:41.944Z,36.95
2022-11-15T16:25:53.834Z,44.90
2022-11-15T16:26:56.896Z,41.03
2022-11-15T16:27:59.972Z,45.97
2022-11-15T16:29:03.145Z,41.42
2022-11-15T16:30:13.779Z,38.88
2022-11-15T16:31:19.362Z,33.10
2022-11-15T16:32:22.526Z,35.30
2022-11-15T16:33:25.809Z,36.85
2022-11-15T16:34:32.240Z,36.85
2022-11-15T16:35:37.179Z,37.60
2022-11-15T16:36:40.405Z,37.20
2022-11-15T16:37:46.546Z,30.42
2022-11-15T16:38:49.977Z,36.05
2022-11-15T16:39:57.134Z,33.65
2022-11-15T16:41:03.013Z,33.33
2022-11-15T16:42:06.200Z,38.50
2022-11-15T16:43:09.319Z,38.00
2022-11-15T16:44:12.373Z,33.65
2022-11-15T16:45:15.638Z,33.03
2022-11-15T16:46:25.257Z,36.80
2022-11-15T16:47:28.380Z,37.28
2022-11-15T16:48:31.861Z,33.13
2022-11-15T16:49:35.199Z,38.67
2022-11-15T16:50:40.950Z,36.92
2022-11-15T16:51:47.313Z,40.13
2022-11-15T16:52:55.828Z,34.75
2022-11-15T16:53:58.970Z,37.80
2022-11-15T16:55:02.045Z,36.97
2022-11-15T16:56:27.376Z,38.35
2022-11-15T16:57:30.560Z,32.97
2022-11-15T16:58:33.894Z,36.50
2022-11-15T16:59:38.532Z,41.13
2022-11-15T17:00:41.723Z,35.92
2022-11-15T17:01:50.836Z,38.67
2022-11-15T17:02:54.465Z,36.35
2022-11-15T17:03:58.146Z,43.22
2022-11-15T17:05:05.622Z,36.45
2022-11-15T17:06:14.577Z,29.52
2022-11-15T17:07:17.743Z,30.65
2022-11-15T17:08:22.159Z,36.10
2022-11-15T17:09:25.441Z,39.55